Time;durP1;ratioP1;P1;durP2;ratioP2;P2;SDS_P1;SDS_P2;PMS_P1;PMS_P2;Temp;Humidity;BMP_temperature;BMP_pressure;BME280_temperature;BME280_humidity;BME280_pressure;Samples;Min_cycle;Max_cycle;Signal;HPM_P1;HPM_P2
2023/01/03 00:00:26;;;;;;;;;;;;;;;9.84;88.94;101312.59;5413846;32;34878;-76
2023/01/03 00:03:29;;;;;;;;;;;;;;;9.74;89.14;101311.94;5401355;32;36388;-67
2023/01/03 00:06:32;;;;;;;;;;;;;;;9.57;89.07;101319.28;5406528;32;34387;-87
2023/01/03 00:09:34;;;;;;;;;;;;;;;9.59;89.26;101315.72;5408118;32;35834;-67
2023/01/03 00:12:36;;;;;;;;;;;;;;;9.50;89.76;101321.16;5399401;32;35405;-68
2023/01/03 00:15:38;;;;;;;;;;;;;;;9.71;88.17;101331.22;5414229;32;34810;-68
2023/01/03 00:18:40;;;;;;;;;;;;;;;8.83;93.06;101335.53;5400674;32;35198;-68
2023/01/03 00:21:42;;;;;;;;;;;;;;;8.77;93.32;101336.47;5414907;32;35035;-86
2023/01/03 00:24:44;;;;;;;;;;;;;;;10.08;87.65;101326.97;5397862;32;35191;-85
2023/01/03 00:27:46;;;;;;;;;;;;;;;9.55;89.16;101332.44;5404507;32;33820;-68
2023/01/03 00:30:48;;;;;;;;;;;;;;;8.67;92.89;101337.50;5408144;32;35978;-87
2023/01/03 00:33:50;;;;;;;;;;;;;;;9.14;91.56;101356.81;5389670;32;35389;-88
2023/01/03 00:36:52;;;;;;;;;;;;;;;9.38;88.53;101345.87;5410018;32;35446;-86
2023/01/03 00:39:54;;;;;;;;;;;;;;;10.07;85.75;101351.50;5398449;32;34268;-86
2023/01/03 00:46:18;;;;;;;;;;;;;;;9.53;89.36;101360.44;5397072;32;45155;-85
2023/01/03 00:49:19;;;;;;;;;;;;;;;8.98;89.01;101356.22;5397265;32;34534;-87
2023/01/03 00:52:21;;;;;;;;;;;;;;;9.27;87.66;101360.06;5388637;32;33648;-67
2023/01/03 00:55:23;;;;;;;;;;;;;;;8.73;91.82;101361.00;5399801;32;36038;-67
2023/01/03 00:58:25;;;;;;;;;;;;;;;8.80;92.90;101360.00;5411257;32;34940;-68
2023/01/03 01:01:28;;;;;;;;;;;;;;;9.09;89.64;101361.28;5399202;32;35170;-86
2023/01/03 01:04:31;;;;;;;;;;;;;;;9.22;89.21;101366.28;5413015;32;34477;-86
2023/01/03 01:07:33;;;;;;;;;;;;;;;8.90;90.81;101358.13;5405776;32;35519;-67
2023/01/03 01:10:35;;;;;;;;;;;;;;;9.74;86.87;101360.03;5403748;32;34099;-67
2023/01/03 01:13:37;;;;;;;;;;;;;;;9.25;86.41;101365.34;5416336;32;34765;-67
2023/01/03 01:16:39;;;;;;;;;;;;;;;9.56;86.98;101367.41;5398793;32;35692;-77
2023/01/03 01:19:41;;;;;;;;;;;;;;;9.51;86.96;101364.88;5411726;32;35377;-87
2023/01/03 01:22:43;;;;;;;;;;;;;;;9.70;86.29;101365.37;5398080;32;35380;-67
2023/01/03 01:25:45;;;;;;;;;;;;;;;9.82;84.49;101367.75;5413810;32;34485;-67
2023/01/03 01:28:47;;;;;;;;;;;;;;;9.47;83.60;101371.09;5399197;32;46140;-67
2023/01/03 01:31:49;;;;;;;;;;;;;;;9.51;83.95;101367.50;5396806;32;35735;-67
2023/01/03 01:34:51;;;;;;;;;;;;;;;9.37;84.47;101370.38;5405113;32;35114;-87
2023/01/03 01:37:52;;;;;;;;;;;;;;;9.65;83.76;101367.22;5399091;32;35288;-87
2023/01/03 01:40:54;;;;;;;;;;;;;;;8.94;87.76;101365.03;5412432;32;35036;-68
2023/01/03 01:47:35;;;;;;;;;;;;;;;8.97;85.10;101365.00;5399325;32;45170;-68
2023/01/03 01:50:38;;;;;;;;;;;;;;;9.39;85.48;101351.97;5402134;32;36168;-75
2023/01/03 01:53:40;;;;;;;;;;;;;;;9.42;84.87;101351.94;5388939;32;34920;-86
2023/01/03 01:56:43;;;;;;;;;;;;;;;9.52;84.01;101353.47;5410850;32;34594;-68
2023/01/03 01:59:45;;;;;;;;;;;;;;;8.80;87.78;101361.78;5398217;32;35015;-86
2023/01/03 02:02:48;;;;;;;;;;;;;;;9.07;86.33;101370.91;5411256;32;45742;-68
2023/01/03 02:05:50;;;;;;;;;;;;;;;8.70;88.13;101370.69;5397348;32;35106;-67
2023/01/03 02:08:52;;;;;;;;;;;;;;;8.66;87.89;101375.97;5398224;32;34764;-86
2023/01/03 02:15:19;;;;;;;;;;;;;;;8.37;88.96;101378.12;5395871;32;44470;-68
2023/01/03 02:18:21;;;;;;;;;;;;;;;7.96;91.60;101378.66;5414756;32;36351;-85
2023/01/03 02:21:31;;;;;;;;;;;;;;;8.46;91.83;101382.41;5391451;32;34993;-67
2023/01/03 02:24:36;;;;;;;;;;;;;;;8.65;89.72;101376.84;5399729;32;35187;-84
2023/01/03 02:27:47;;;;;;;;;;;;;;;8.90;87.18;101379.97;5407746;32;35150;-67
2023/01/03 02:30:50;;;;;;;;;;;;;;;8.31;89.48;101380.84;5398468;32;45728;-67
2023/01/03 02:33:54;;;;;;;;;;;;;;;9.27;86.39;101368.81;5404006;32;35674;-87
2023/01/03 02:36:59;;;;;;;;;;;;;;;9.30;85.37;101370.53;5385607;32;34679;-76
2023/01/03 02:40:11;;;;;;;;;;;;;;;9.60;83.11;101369.97;5393097;32;35107;-87
2023/01/03 02:43:19;;;;;;;;;;;;;;;9.66;83.44;101367.22;5401235;32;36215;-68
2023/01/03 02:46:26;;;;;;;;;;;;;;;9.04;86.73;101379.72;5397477;32;44435;-85
2023/01/03 02:49:33;;;;;;;;;;;;;;;8.93;87.41;101384.28;5410325;32;34136;-74
2023/01/03 02:52:35;;;;;;;;;;;;;;;9.05;86.28;101386.69;5372498;32;35024;-67
2023/01/03 02:55:37;;;;;;;;;;;;;;;9.26;84.20;101385.44;5405992;32;35173;-75
2023/01/03 02:58:39;;;;;;;;;;;;;;;9.21;85.07;101387.31;5396131;32;35747;-67
2023/01/03 03:01:44;;;;;;;;;;;;;;;9.98;81.25;101394.56;5397411;32;34300;-68
2023/01/03 03:04:47;;;;;;;;;;;;;;;10.23;80.17;101384.44;5414442;32;36528;-70
2023/01/03 03:07:49;;;;;;;;;;;;;;;8.77;85.05;101385.44;5396355;32;34603;-85
2023/01/03 03:14:13;;;;;;;;;;;;;;;9.04;85.31;101379.72;5397264;32;34757;-86
2023/01/03 03:17:16;;;;;;;;;;;;;;;9.19;86.16;101376.81;5399437;32;34375;-67
2023/01/03 03:26:59;;;;;;;;;;;;;;;8.29;87.45;101387.81;5416501;32;35463;-67
2023/01/03 03:30:01;;;;;;;;;;;;;;;8.56;88.58;101384.84;5396646;32;34627;-67
2023/01/03 03:33:05;;;;;;;;;;;;;;;8.94;85.07;101386.00;5405233;32;34748;-85
2023/01/03 03:36:07;;;;;;;;;;;;;;;9.55;82.82;101395.44;5404999;32;36518;-85
2023/01/03 03:44:59;;;;;;;;;;;;;;;8.96;83.65;101399.97;5398967;32;35006;-68
2023/01/03 03:46:04;;;;;;;;;;;;;;;9.43;83.16;101400.91;5397226;32;35599;-78
2023/01/03 03:52:31;;;;;;;;;;;;;;;9.59;82.26;101393.59;5389012;32;36094;-67
2023/01/03 03:55:35;;;;;;;;;;;;;;;10.08;79.66;101390.84;5400798;32;34343;-69
2023/01/03 03:58:41;;;;;;;;;;;;;;;9.55;82.36;101384.06;5413996;32;34179;-68
2023/01/03 04:01:43;;;;;;;;;;;;;;;9.40;81.10;101393.97;5398176;32;34915;-68
2023/01/03 04:04:46;;;;;;;;;;;;;;;9.02;83.28;101397.25;5411797;32;34784;-85
2023/01/03 04:07:48;;;;;;;;;;;;;;;9.56;80.38;101391.91;5401462;32;44737;-85
2023/01/03 04:10:50;;;;;;;;;;;;;;;9.09;82.28;101396.25;5399027;32;34826;-68
2023/01/03 04:13:52;;;;;;;;;;;;;;;9.81;79.97;101402.78;5415315;32;35166;-85
2023/01/03 04:16:54;;;;;;;;;;;;;;;9.36;80.20;101401.91;5400349;32;34238;-86
2023/01/03 04:19:56;;;;;;;;;;;;;;;9.74;79.74;101401.19;5415032;32;35871;-68
2023/01/03 04:22:58;;;;;;;;;;;;;;;9.70;78.55;101403.00;5396267;32;34361;-67
2023/01/03 04:26:00;;;;;;;;;;;;;;;9.66;78.60;101398.72;5410610;32;34964;-68
2023/01/03 04:29:02;;;;;;;;;;;;;;;9.74;77.66;101391.56;5401961;32;35479;-68
2023/01/03 04:32:04;;;;;;;;;;;;;;;9.69;77.64;101395.16;5392654;32;34780;-85
2023/01/03 04:35:06;;;;;;;;;;;;;;;9.50;77.95;101397.25;5408893;32;37031;-68
2023/01/03 04:38:08;;;;;;;;;;;;;;;9.62;78.13;101402.28;5396916;32;35349;-67
2023/01/03 04:41:10;;;;;;;;;;;;;;;9.57;77.68;101392.75;5397681;32;35358;-85
2023/01/03 04:44:12;;;;;;;;;;;;;;;9.53;77.52;101406.81;5388775;32;35068;-86
2023/01/03 04:47:14;;;;;;;;;;;;;;;9.88;76.05;101399.16;5410206;32;35257;-69
2023/01/03 04:50:16;;;;;;;;;;;;;;;9.66;76.32;101403.06;5387413;32;35771;-68
2023/01/03 04:53:17;;;;;;;;;;;;;;;9.57;76.49;101404.13;5386039;32;45771;-67
2023/01/03 04:56:26;;;;;;;;;;;;;;;9.77;75.31;101399.34;5412611;32;34357;-85
2023/01/03 04:59:27;;;;;;;;;;;;;;;10.26;72.54;101398.38;5398080;32;35679;-68
2023/01/03 05:02:29;;;;;;;;;;;;;;;9.73;75.63;101405.59;5415009;32;34906;-76
2023/01/03 05:05:31;;;;;;;;;;;;;;;8.60;80.06;101398.78;5396883;32;35289;-77
2023/01/03 05:08:34;;;;;;;;;;;;;;;8.80;80.37;101415.06;5402165;32;35243;-67
2023/01/03 05:11:36;;;;;;;;;;;;;;;8.61;80.09;101417.09;5405734;32;35306;-68
2023/01/03 05:14:40;;;;;;;;;;;;;;;8.10;82.32;101429.97;5394723;32;35340;-85
2023/01/03 05:17:42;;;;;;;;;;;;;;;8.38;81.26;101419.19;5389003;32;34892;-67
2023/01/03 05:27:25;;;;;;;;;;;;;;;8.57;78.96;101431.16;5398922;32;43439;-67
2023/01/03 05:30:27;;;;;;;;;;;;;;;9.34;76.50;101430.81;5398603;32;35404;-67
2023/01/03 05:33:29;;;;;;;;;;;;;;;9.35;76.70;101434.28;5404714;32;34608;-67
2023/01/03 05:36:31;;;;;;;;;;;;;;;8.37;80.54;101441.91;5392672;32;34270;-67
2023/01/03 05:39:33;;;;;;;;;;;;;;;7.79;83.73;101450.41;5406297;32;35118;-67
2023/01/03 05:42:35;;;;;;;;;;;;;;;8.95;79.79;101445.41;5393473;32;34878;-85
2023/01/03 05:45:37;;;;;;;;;;;;;;;8.74;80.23;101445.75;5408854;32;37275;-86
2023/01/03 05:48:39;;;;;;;;;;;;;;;9.31;78.47;101448.34;5400721;32;35592;-67
2023/01/03 05:51:41;;;;;;;;;;;;;;;8.68;79.41;101463.28;5376701;32;35325;-67
2023/01/03 05:54:43;;;;;;;;;;;;;;;7.90;82.82;101475.59;5410275;32;35155;-68
2023/01/03 05:57:46;;;;;;;;;;;;;;;8.62;82.93;101476.47;5393923;32;35171;-67
2023/01/03 06:00:48;;;;;;;;;;;;;;;9.16;79.56;101467.81;5414845;32;45169;-67
2023/01/03 06:03:49;;;;;;;;;;;;;;;8.76;79.37;101472.78;5383534;32;34725;-67
2023/01/03 06:06:51;;;;;;;;;;;;;;;8.58;80.11;101476.56;5404390;32;35614;-67
2023/01/03 06:09:53;;;;;;;;;;;;;;;8.85;79.67;101464.81;5405039;32;35662;-86
2023/01/03 06:12:55;;;;;;;;;;;;;;;9.26;76.74;101463.28;5393401;32;34433;-85
2023/01/03 06:19:25;;;;;;;;;;;;;;;8.54;79.28;101474.84;5394630;32;44147;-68
2023/01/03 06:22:27;;;;;;;;;;;;;;;9.02;77.15;101465.44;5413174;32;35717;-85
2023/01/03 06:25:29;;;;;;;;;;;;;;;8.93;78.14;101470.78;5401784;32;35378;-67
2023/01/03 06:28:31;;;;;;;;;;;;;;;8.67;77.81;101471.16;5397850;32;34241;-68
2023/01/03 06:31:33;;;;;;;;;;;;;;;7.93;80.57;101473.81;5410000;32;34743;-86
2023/01/03 06:34:36;;;;;;;;;;;;;;;8.89;78.54;101477.00;5388944;32;35347;-67
2023/01/03 06:37:38;;;;;;;;;;;;;;;8.95;77.61;101476.88;5396747;32;34946;-86
2023/01/03 06:40:45;;;;;;;;;;;;;;;8.56;79.00;101483.53;5394147;32;34853;-87
2023/01/03 06:43:47;;;;;;;;;;;;;;;9.30;76.41;101483.34;5408267;32;45602;-87
2023/01/03 06:53:32;;;;;;;;;;;;;;;8.33;78.94;101505.66;5401601;32;35935;-76
2023/01/03 06:56:34;;;;;;;;;;;;;;;8.07;82.09;101503.31;5399621;32;34891;-67
2023/01/03 06:59:36;;;;;;;;;;;;;;;9.07;79.34;101497.66;5412269;32;35402;-67
2023/01/03 07:02:38;;;;;;;;;;;;;;;9.61;74.48;101510.81;5399727;32;35136;-68
2023/01/03 07:05:40;;;;;;;;;;;;;;;9.34;76.43;101512.13;5398697;32;35144;-66
2023/01/03 07:08:42;;;;;;;;;;;;;;;8.58;80.32;101519.34;5415987;32;34945;-67
2023/01/03 07:11:49;;;;;;;;;;;;;;;9.23;78.02;101514.91;5385449;32;44645;-85
2023/01/03 07:14:51;;;;;;;;;;;;;;;9.40;76.22;101512.03;5415524;32;34870;-68
2023/01/03 07:17:54;;;;;;;;;;;;;;;8.75;78.85;101531.34;5397094;32;35637;-86
2023/01/03 07:20:56;;;;;;;;;;;;;;;9.13;79.37;101523.81;5404896;32;34644;-67
2023/01/03 07:24:00;;;;;;;;;;;;;;;9.32;78.51;101528.78;5404966;32;35053;-76
2023/01/03 07:27:02;;;;;;;;;;;;;;;9.53;77.51;101522.31;5402502;32;34847;-85
2023/01/03 07:30:04;;;;;;;;;;;;;;;9.68;77.28;101522.94;5406921;32;36681;-84
2023/01/03 07:33:08;;;;;;;;;;;;;;;10.18;74.98;101522.91;5392512;32;35316;-86
2023/01/03 07:36:10;;;;;;;;;;;;;;;10.30;74.25;101528.81;5415271;32;35075;-86
2023/01/03 07:39:13;;;;;;;;;;;;;;;10.80;72.46;101526.88;5390355;32;34887;-85
2023/01/03 07:45:38;;;;;;;;;;;;;;;11.27;69.45;101532.84;5413234;32;34720;-86
2023/01/03 07:48:40;;;;;;;;;;;;;;;10.81;70.96;101539.13;5394338;32;34479;-86
2023/01/03 07:51:42;;;;;;;;;;;;;;;10.73;71.73;101538.44;5395886;32;35486;-67
2023/01/03 07:54:44;;;;;;;;;;;;;;;10.61;72.02;101537.81;5391261;32;34912;-67
2023/01/03 07:57:46;;;;;;;;;;;;;;;11.11;70.47;101534.94;5412780;32;44790;-67
2023/01/03 08:00:48;;;;;;;;;;;;;;;11.28;69.56;101531.06;5385326;32;45357;-69
2023/01/03 08:03:50;;;;;;;;;;;;;;;11.51;68.77;101541.87;5399853;32;34964;-67
2023/01/03 08:06:52;;;;;;;;;;;;;;;11.43;69.28;101553.50;5415189;32;34891;-85
2023/01/03 08:13:17;;;;;;;;;;;;;;;10.72;71.32;101559.50;5413841;32;35031;-68
2023/01/03 08:16:19;;;;;;;;;;;;;;;10.89;70.66;101560.00;5384534;32;45646;-67
2023/01/03 08:19:22;;;;;;;;;;;;;;;10.92;71.73;101569.59;5407895;32;35307;-86
2023/01/03 08:22:24;;;;;;;;;;;;;;;10.90;72.27;101566.13;5406814;32;35425;-67
2023/01/03 08:25:26;;;;;;;;;;;;;;;11.59;69.85;101568.03;5383294;32;34164;-87
2023/01/03 08:28:28;;;;;;;;;;;;;;;11.63;68.84;101570.56;5410976;32;34772;-87
2023/01/03 08:31:30;;;;;;;;;;;;;;;11.84;68.22;101566.53;5395218;32;34563;-86
2023/01/03 08:34:32;;;;;;;;;;;;;;;11.98;66.33;101560.03;5410681;32;35761;-86
2023/01/03 08:37:34;;;;;;;;;;;;;;;12.03;66.97;101573.97;5396145;32;34619;-68
2023/01/03 08:40:36;;;;;;;;;;;;;;;12.39;65.99;101586.16;5404212;32;35807;-67
2023/01/03 08:43:43;;;;;;;;;;;;;;;12.13;66.26;101571.06;5408230;32;34199;-68
2023/01/03 08:46:46;;;;;;;;;;;;;;;12.42;65.97;101572.87;5399565;32;34791;-86
2023/01/03 08:49:48;;;;;;;;;;;;;;;12.95;63.83;101567.84;5418317;32;44582;-67
2023/01/03 08:52:51;;;;;;;;;;;;;;;11.99;66.67;101572.34;5378905;32;34408;-86
2023/01/03 08:55:53;;;;;;;;;;;;;;;12.30;66.19;101575.87;5415547;32;35185;-67
2023/01/03 08:58:57;;;;;;;;;;;;;;;12.19;66.59;101583.22;5396970;32;35410;-77
2023/01/03 09:02:00;;;;;;;;;;;;;;;12.23;66.73;101586.63;5403922;32;34217;-85
2023/01/03 09:05:02;;;;;;;;;;;;;;;12.52;65.80;101588.47;5412933;32;35247;-69
2023/01/03 09:08:04;;;;;;;;;;;;;;;12.77;65.07;101588.63;5398983;32;34169;-77
2023/01/03 09:11:07;;;;;;;;;;;;;;;12.13;66.05;101593.91;5403001;32;36280;-86
2023/01/03 09:14:09;;;;;;;;;;;;;;;12.21;66.96;101594.56;5362407;32;925462;-67
2023/01/03 09:17:11;;;;;;;;;;;;;;;12.60;65.71;101591.75;5412153;32;34969;-87
2023/01/03 09:20:14;;;;;;;;;;;;;;;12.80;64.45;101594.66;5396393;32;33465;-69
2023/01/03 09:23:15;;;;;;;;;;;;;;;12.72;64.52;101596.69;5403018;32;34725;-86
2023/01/03 09:26:17;;;;;;;;;;;;;;;12.89;64.19;101589.16;5406124;32;44819;-83
2023/01/03 09:29:19;;;;;;;;;;;;;;;12.48;64.12;101593.81;5400808;32;35786;-84
2023/01/03 09:32:21;;;;;;;;;;;;;;;12.52;65.43;101596.37;5415235;32;34880;-84
2023/01/03 09:35:23;;;;;;;;;;;;;;;13.14;63.04;101589.28;5396264;32;34308;-86
2023/01/03 09:38:25;;;;;;;;;;;;;;;12.77;64.48;101601.84;5413745;32;34158;-85
2023/01/03 09:41:27;;;;;;;;;;;;;;;13.15;63.22;101595.41;5394803;32;35094;-67
2023/01/03 09:44:29;;;;;;;;;;;;;;;12.21;66.83;101602.47;5395655;32;35561;-87
2023/01/03 09:47:33;;;;;;;;;;;;;;;12.16;66.29;101596.47;5412122;32;34637;-75
2023/01/03 09:50:36;;;;;;;;;;;;;;;12.90;64.23;101601.41;5383710;32;34864;-86
2023/01/03 10:04:15;;;;;;;;;;;;;;;13.08;62.60;101578.03;5411426;32;35770;-70
2023/01/03 10:07:37;;;;;;;;;;;;;;;12.58;63.54;101589.16;5397278;32;44924;-67
2023/01/03 10:11:05;;;;;;;;;;;;;;;13.84;59.62;101578.22;5409393;32;33019;-68
2023/01/03 10:14:21;;;;;;;;;;;;;;;11.51;65.81;101585.78;5409491;32;35109;-67
2023/01/03 10:17:23;;;;;;;;;;;;;;;13.16;61.32;101579.53;5397771;32;45069;-78
2023/01/03 10:20:34;;;;;;;;;;;;;;;12.97;62.02;101586.28;5414924;32;35139;-85
2023/01/03 10:23:36;;;;;;;;;;;;;;;13.28;60.85;101583.59;5393625;32;35097;-68
2023/01/03 10:26:38;;;;;;;;;;;;;;;13.63;60.39;101576.31;5407274;32;34826;-68
2023/01/03 10:29:40;;;;;;;;;;;;;;;13.38;61.12;101584.16;5408014;32;35014;-69
2023/01/03 10:32:42;;;;;;;;;;;;;;;13.25;60.91;101578.41;5392698;32;34799;-70
2023/01/03 10:35:44;;;;;;;;;;;;;;;12.94;62.82;101579.28;5407715;32;34416;-68
2023/01/03 10:38:46;;;;;;;;;;;;;;;12.94;61.66;101575.78;5389962;32;35514;-85
2023/01/03 10:41:56;;;;;;;;;;;;;;;13.23;60.64;101569.66;5413717;32;44765;-67
2023/01/03 10:45:06;;;;;;;;;;;;;;;12.61;62.60;101572.37;5390200;32;37003;-77
2023/01/03 10:48:11;;;;;;;;;;;;;;;13.93;59.46;101566.50;5389089;32;37809;-85
2023/01/03 10:51:39;;;;;;;;;;;;;;;15.06;55.23;101549.97;5398191;32;34933;-68
2023/01/03 10:54:54;;;;;;;;;;;;;;;13.22;60.49;101557.38;5380137;32;35860;-67
2023/01/03 10:58:12;;;;;;;;;;;;;;;12.69;62.64;101559.84;5409351;32;34989;-87
2023/01/03 11:01:21;;;;;;;;;;;;;;;12.74;62.43;101560.56;5390808;32;34750;-67
2023/01/03 11:04:24;;;;;;;;;;;;;;;13.31;60.47;101554.44;5393229;32;44851;-67
2023/01/03 11:07:26;;;;;;;;;;;;;;;14.61;56.21;101545.53;5405597;32;34993;-67
2023/01/03 11:10:38;;;;;;;;;;;;;;;14.16;56.37;101544.53;5398657;32;35411;-76
2023/01/03 11:13:40;;;;;;;;;;;;;;;12.32;60.83;101552.97;5409061;32;34646;-67
2023/01/03 11:16:42;;;;;;;;;;;;;;;12.03;63.26;101552.88;5400738;32;35391;-86
2023/01/03 11:19:44;;;;;;;;;;;;;;;12.30;63.19;101541.63;5399824;32;35158;-68
2023/01/03 11:22:53;;;;;;;;;;;;;;;12.78;61.89;101540.25;5408838;32;43058;-84
2023/01/03 11:25:55;;;;;;;;;;;;;;;13.46;60.25;101530.19;5393451;32;35217;-69
2023/01/03 11:28:56;;;;;;;;;;;;;;;13.81;58.66;101529.00;5409851;32;34821;-86
2023/01/03 11:32:04;;;;;;;;;;;;;;;14.81;55.89;101533.31;5397400;32;35253;-67
2023/01/03 11:35:25;;;;;;;;;;;;;;;15.53;53.35;101527.81;5406996;32;35226;-67
2023/01/03 11:38:30;;;;;;;;;;;;;;;13.91;57.27;101537.50;5399772;32;34844;-67
2023/01/03 11:41:35;;;;;;;;;;;;;;;14.40;56.84;101535.72;5394678;32;34297;-85
2023/01/03 11:44:44;;;;;;;;;;;;;;;15.46;53.18;101521.91;5415715;32;34200;-76
2023/01/03 11:47:49;;;;;;;;;;;;;;;14.07;56.72;101536.03;5397247;32;44158;-68
2023/01/03 11:51:11;;;;;;;;;;;;;;;14.46;55.87;101538.16;5399124;32;34445;-69
2023/01/03 11:54:13;;;;;;;;;;;;;;;14.62;55.68;101531.41;5380029;32;35938;-86
2023/01/03 11:57:18;;;;;;;;;;;;;;;14.88;54.61;101529.53;5396184;32;34765;-69
2023/01/03 12:00:20;;;;;;;;;;;;;;;14.59;55.16;101525.34;5414179;32;45296;-88
2023/01/03 12:03:22;;;;;;;;;;;;;;;14.48;55.42;101523.09;5397606;32;34790;-67
2023/01/03 12:06:30;;;;;;;;;;;;;;;14.30;56.69;101521.13;5412285;32;34372;-68
2023/01/03 12:09:35;;;;;;;;;;;;;;;14.48;55.83;101530.19;5389613;32;34424;-67
2023/01/03 12:12:40;;;;;;;;;;;;;;;15.18;54.01;101519.50;5402420;32;34256;-68
2023/01/03 12:15:57;;;;;;;;;;;;;;;15.95;51.36;101515.41;5396212;32;34771;-67
2023/01/03 12:19:02;;;;;;;;;;;;;;;14.85;54.65;101513.75;5395151;32;34463;-68
2023/01/03 12:22:19;;;;;;;;;;;;;;;14.18;56.48;101511.84;5415428;32;34246;-67
2023/01/03 12:25:21;;;;;;;;;;;;;;;15.24;53.75;101515.75;5387433;32;44759;-85
2023/01/03 12:28:25;;;;;;;;;;;;;;;14.98;54.37;101520.31;5406072;32;35110;-68
2023/01/03 12:31:31;;;;;;;;;;;;;;;13.88;57.26;101508.50;5403705;32;35369;-87
2023/01/03 12:34:33;;;;;;;;;;;;;;;14.59;55.47;101507.69;5386103;32;34355;-68
2023/01/03 12:37:36;;;;;;;;;;;;;;;14.05;57.23;101507.94;5408767;32;34853;-76
2023/01/03 12:40:41;;;;;;;;;;;;;;;13.61;58.51;101510.31;5398866;32;33795;-68
2023/01/03 12:43:45;;;;;;;;;;;;;;;13.95;57.36;101510.00;5408511;32;34234;-87
2023/01/03 12:46:49;;;;;;;;;;;;;;;13.54;59.49;101514.09;5397307;32;44819;-68
2023/01/03 12:49:53;;;;;;;;;;;;;;;13.53;59.23;101510.59;5398264;32;35467;-87
2023/01/03 12:53:05;;;;;;;;;;;;;;;13.33;59.29;101507.75;5388319;32;35332;-68
2023/01/03 12:56:17;;;;;;;;;;;;;;;13.36;59.39;101507.63;5384323;32;35230;-68
2023/01/03 12:59:30;;;;;;;;;;;;;;;14.26;56.26;101507.13;5412499;32;46130;-68
2023/01/03 13:02:45;;;;;;;;;;;;;;;15.12;53.74;101517.09;5399381;32;34332;-78
2023/01/03 13:05:54;;;;;;;;;;;;;;;13.97;55.96;101510.81;5400654;32;44950;-68
2023/01/03 13:08:59;;;;;;;;;;;;;;;14.12;55.93;101509.44;5415318;32;35345;-67
2023/01/03 13:12:14;;;;;;;;;;;;;;;13.72;55.81;101513.47;5403212;32;35468;-87
2023/01/03 13:15:25;;;;;;;;;;;;;;;13.82;55.23;101506.06;5413662;32;35649;-86
2023/01/03 13:18:36;;;;;;;;;;;;;;;13.46;56.59;101509.06;5398690;32;35043;-85
2023/01/03 13:21:48;;;;;;;;;;;;;;;13.37;57.04;101516.41;5401415;32;35317;-88
2023/01/03 13:24:51;;;;;;;;;;;;;;;13.24;57.67;101521.22;5414584;32;44621;-87
2023/01/03 13:27:55;;;;;;;;;;;;;;;13.67;56.56;101515.41;5396687;32;34279;-68
2023/01/03 13:31:21;;;;;;;;;;;;;;;14.13;55.06;101518.22;5416143;32;35545;-68
2023/01/03 13:34:31;;;;;;;;;;;;;;;13.34;56.49;101513.91;5391792;32;45268;-85
2023/01/03 13:37:36;;;;;;;;;;;;;;;13.73;55.81;101515.19;5400911;32;35519;-66
2023/01/03 13:40:38;;;;;;;;;;;;;;;13.30;56.92;101531.59;5413478;32;35213;-84
2023/01/03 13:44:16;;;;;;;;;;;;;;;12.81;57.58;101540.12;5394725;32;34718;-77
2023/01/03 13:47:22;;;;;;;;;;;;;;;12.67;59.00;101535.28;5407171;32;44610;-67
2023/01/03 13:50:34;;;;;;;;;;;;;;;12.42;60.03;101543.88;5390792;32;34735;-82
2023/01/03 13:53:37;;;;;;;;;;;;;;;12.69;59.70;101534.34;5385344;32;36705;-69
2023/01/03 13:56:42;;;;;;;;;;;;;;;13.53;56.65;101523.78;5413876;32;35590;-85
2023/01/03 13:59:46;;;;;;;;;;;;;;;13.55;56.02;101516.69;5398704;32;34193;-85
2023/01/03 14:02:48;;;;;;;;;;;;;;;13.36;56.79;101526.13;5414973;32;44974;-67
2023/01/03 14:05:53;;;;;;;;;;;;;;;12.89;57.96;101531.09;5393885;32;35540;-92
2023/01/03 14:09:01;;;;;;;;;;;;;;;12.46;58.78;101526.22;5417705;32;34377;-67
2023/01/03 14:12:21;;;;;;;;;;;;;;;12.63;58.67;101538.94;5401463;32;35367;-67
2023/01/03 14:15:24;;;;;;;;;;;;;;;12.44;59.73;101538.59;5397286;32;45974;-67
2023/01/03 14:18:28;;;;;;;;;;;;;;;11.55;62.59;101551.44;5414375;32;35388;-76
2023/01/03 14:21:36;;;;;;;;;;;;;;;11.62;62.41;101546.91;5398857;32;34780;-88
2023/01/03 14:24:53;;;;;;;;;;;;;;;12.10;61.16;101550.03;5412024;32;34975;-77
2023/01/03 14:27:56;;;;;;;;;;;;;;;11.64;62.98;101560.88;5399003;32;46480;-68
2023/01/03 14:31:04;;;;;;;;;;;;;;;11.87;61.71;101547.19;5402293;32;35215;-90
2023/01/03 14:34:13;;;;;;;;;;;;;;;11.26;63.64;101562.66;5394116;32;35673;-77
2023/01/03 14:37:16;;;;;;;;;;;;;;;11.12;65.47;101577.91;5389807;32;34565;-68
2023/01/03 14:40:19;;;;;;;;;;;;;;;11.13;65.07;101574.38;5411680;32;46820;-87
2023/01/03 14:43:21;;;;;;;;;;;;;;;11.03;65.18;101578.12;5395287;32;34817;-87
2023/01/03 14:46:23;;;;;;;;;;;;;;;10.99;65.35;101572.06;5405959;32;35253;-87
2023/01/03 14:49:25;;;;;;;;;;;;;;;11.59;63.51;101560.13;5410243;32;35775;-68
2023/01/03 14:52:33;;;;;;;;;;;;;;;11.93;62.83;101563.69;5376752;32;35782;-68
2023/01/03 14:55:35;;;;;;;;;;;;;;;12.36;60.44;101570.41;5406974;32;34166;-67
2023/01/03 14:58:38;;;;;;;;;;;;;;;12.22;61.38;101576.97;5393188;32;35486;-88
2023/01/03 15:01:41;;;;;;;;;;;;;;;12.64;59.76;101574.94;5412738;32;34607;-87
2023/01/03 15:04:48;;;;;;;;;;;;;;;12.06;61.77;101577.41;5389293;32;35170;-88
2023/01/03 15:07:49;;;;;;;;;;;;;;;11.63;63.49;101586.34;5392782;32;44665;-68
2023/01/03 15:10:53;;;;;;;;;;;;;;;11.43;64.49;101582.47;5400590;32;35131;-88
2023/01/03 15:14:01;;;;;;;;;;;;;;;11.38;64.77;101583.44;5396755;32;36159;-68
2023/01/03 15:17:04;;;;;;;;;;;;;;;12.34;61.91;101579.28;5399987;32;34383;-68
2023/01/03 15:20:06;;;;;;;;;;;;;;;12.66;59.90;101575.75;5403333;32;34697;-69
2023/01/03 15:23:34;;;;;;;;;;;;;;;12.39;60.87;101585.31;5404725;32;34819;-67
2023/01/03 15:26:37;;;;;;;;;;;;;;;12.26;61.39;101592.69;5378653;32;35361;-87
2023/01/03 15:29:43;;;;;;;;;;;;;;;11.20;64.64;101593.50;5399124;32;35003;-90
2023/01/03 15:32:51;;;;;;;;;;;;;;;10.94;66.61;101607.25;5401502;32;35097;-68
2023/01/03 15:35:53;;;;;;;;;;;;;;;11.56;64.26;101603.19;5391267;32;45385;-90
2023/01/03 15:38:54;;;;;;;;;;;;;;;11.66;64.27;101593.34;5402470;32;35534;-69
2023/01/03 15:45:38;;;;;;;;;;;;;;;11.06;67.82;101623.63;5397560;32;35385;-88
2023/01/03 15:48:41;;;;;;;;;;;;;;;12.20;63.52;101600.75;5410872;32;35113;-88
2023/01/03 15:51:43;;;;;;;;;;;;;;;12.74;61.11;101606.25;5378885;32;35393;-89
2023/01/03 15:54:45;;;;;;;;;;;;;;;11.52;65.34;101616.47;5408450;32;34913;-88
2023/01/03 15:57:49;;;;;;;;;;;;;;;11.50;65.87;101615.66;5395624;32;45808;-68
2023/01/03 16:00:51;;;;;;;;;;;;;;;12.46;62.55;101629.06;5392352;32;34909;-88
2023/01/03 16:03:53;;;;;;;;;;;;;;;11.45;65.09;101631.53;5401246;32;34681;-88
2023/01/03 16:06:56;;;;;;;;;;;;;;;11.75;65.53;101626.47;5397496;32;34563;-75
2023/01/03 16:09:58;;;;;;;;;;;;;;;11.77;64.46;101641.31;5412813;32;35255;-67
2023/01/03 16:12:59;;;;;;;;;;;;;;;11.82;65.40;101634.22;5391394;32;34829;-68
2023/01/03 16:16:01;;;;;;;;;;;;;;;11.04;67.90;101648.25;5404955;32;34378;-67
2023/01/03 16:19:04;;;;;;;;;;;;;;;12.17;64.56;101640.34;5397421;32;34769;-88
2023/01/03 16:22:08;;;;;;;;;;;;;;;12.14;64.25;101636.03;5396076;32;34331;-89
2023/01/03 16:25:29;;;;;;;;;;;;;;;11.61;66.47;101635.56;5411648;32;35231;-88
2023/01/03 16:28:31;;;;;;;;;;;;;;;12.27;64.37;101644.50;5388731;32;34666;-88
2023/01/03 16:31:34;;;;;;;;;;;;;;;12.61;62.60;101638.31;5411293;32;34319;-87
2023/01/03 16:34:36;;;;;;;;;;;;;;;12.60;62.38;101650.63;5397972;32;34638;-87
2023/01/03 16:37:38;;;;;;;;;;;;;;;12.01;64.52;101645.16;5399308;32;34910;-87
2023/01/03 16:40:40;;;;;;;;;;;;;;;12.04;65.29;101652.09;5409230;32;34594;-89
2023/01/03 16:43:42;;;;;;;;;;;;;;;12.24;64.67;101649.00;5392292;32;34962;-67
2023/01/03 16:46:44;;;;;;;;;;;;;;;12.00;64.97;101653.97;5411650;32;35469;-67
2023/01/03 16:49:47;;;;;;;;;;;;;;;12.33;64.49;101660.16;5396636;32;37444;-87
2023/01/03 16:52:52;;;;;;;;;;;;;;;11.60;67.00;101660.16;5383058;32;33002;-89
2023/01/03 16:55:55;;;;;;;;;;;;;;;11.59;67.86;101666.34;5395502;32;34382;-87